createdAt,value
2022-08-19T00:04:53.766Z,100.00
2022-08-19T00:09:57.280Z,100.00
2022-08-19T00:15:02.580Z,100.00
2022-08-19T00:20:07.491Z,100.00
2022-08-19T00:25:11.189Z,100.00
2022-08-19T00:30:16.567Z,100.00
2022-08-19T00:35:20.250Z,100.00
2022-08-19T00:40:23.999Z,100.00
2022-08-19T00:45:31.616Z,100.00
2022-08-19T00:50:36.903Z,100.00
2022-08-19T00:55:58.643Z,100.00
2022-08-19T01:01:04.329Z,100.00
2022-08-19T01:06:08.483Z,100.00
2022-08-19T01:11:12.080Z,100.00
2022-08-19T01:16:18.632Z,100.00
2022-08-19T01:21:28.496Z,100.00
2022-08-19T01:26:33.420Z,100.00
2022-08-19T01:31:38.034Z,100.00
2022-08-19T01:36:46.786Z,100.00
2022-08-19T01:41:53.334Z,100.00
2022-08-19T01:46:56.987Z,100.00
2022-08-19T01:52:01.839Z,100.00
2022-08-19T01:57:10.719Z,100.00
2022-08-19T02:02:14.787Z,100.00
2022-08-19T02:07:21.406Z,100.00
2022-08-19T02:12:26.218Z,100.00
2022-08-19T02:17:30.155Z,100.00
2022-08-19T02:22:33.875Z,100.00
2022-08-19T02:27:39.042Z,100.00
2022-08-19T02:32:54.323Z,100.00
2022-08-19T02:38:15.640Z,100.00
2022-08-19T02:43:22.160Z,100.00
2022-08-19T02:48:27.238Z,100.00
2022-08-19T02:53:30.890Z,100.00
2022-08-19T02:58:35.867Z,100.00
2022-08-19T03:03:39.742Z,100.00
2022-08-19T03:08:45.524Z,100.00
2022-08-19T03:13:51.778Z,100.00
2022-08-19T03:18:56.133Z,100.00
2022-08-19T03:24:01.799Z,100.00
2022-08-19T03:29:08.615Z,100.00
2022-08-19T03:34:15.719Z,100.00
2022-08-19T03:39:20.206Z,100.00
2022-08-19T03:44:25.372Z,100.00
2022-08-19T03:49:31.221Z,100.00
2022-08-19T04:00:13.413Z,100.00
2022-08-19T04:05:17.593Z,100.00
2022-08-19T04:10:21.109Z,100.00
2022-08-19T04:15:25.987Z,100.00
2022-08-19T04:20:29.469Z,100.00
2022-08-19T04:25:38.088Z,100.00
2022-08-19T04:30:46.010Z,100.00
2022-08-19T04:35:52.482Z,100.00
2022-08-19T04:41:13.599Z,100.00
2022-08-19T04:46:39.101Z,100.00
2022-08-19T04:51:45.309Z,100.00
2022-08-19T04:56:50.884Z,100.00
2022-08-19T05:01:55.721Z,100.00
2022-08-19T05:07:00.830Z,100.00
2022-08-19T05:12:06.592Z,100.00
2022-08-19T05:17:27.194Z,100.00
2022-08-19T05:22:35.681Z,100.00
2022-08-19T05:27:39.145Z,100.00
2022-08-19T05:32:44.509Z,100.00
2022-08-19T05:37:48.084Z,100.00
2022-08-19T05:42:55.218Z,100.00
2022-08-19T05:48:00.558Z,100.00
2022-08-19T05:53:04.017Z,100.00
2022-08-19T05:58:08.422Z,100.00
2022-08-19T06:03:13.520Z,100.00
2022-08-19T06:08:19.369Z,100.00
2022-08-19T06:13:24.821Z,100.00
2022-08-19T06:18:30.200Z,100.00
2022-08-19T06:23:35.091Z,100.00
2022-08-19T06:28:47.449Z,100.00
2022-08-19T06:33:53.648Z,100.00
2022-08-19T06:38:58.632Z,100.00
2022-08-19T06:44:02.104Z,100.00
2022-08-19T06:49:11.222Z,100.00
2022-08-19T06:54:19.305Z,100.00
2022-08-19T06:59:28.133Z,100.00
2022-08-19T07:04:34.824Z,100.00
2022-08-19T07:09:39.909Z,100.00
2022-08-19T07:14:47.282Z,100.00
2022-08-19T07:19:54.493Z,100.00
2022-08-19T07:24:58.326Z,100.00
2022-08-19T07:30:02.903Z,100.00
2022-08-19T07:35:10.359Z,100.00
2022-08-19T07:40:14.393Z,100.00
2022-08-19T07:45:18.191Z,100.00
2022-08-19T07:50:23.894Z,100.00
2022-08-19T07:55:41.839Z,100.00
2022-08-19T08:00:50.016Z,100.00
2022-08-19T08:06:23.592Z,100.00
2022-08-19T08:11:27.276Z,100.00
2022-08-19T08:16:39.673Z,100.00
2022-08-19T08:21:54.752Z,100.00
2022-08-19T08:26:59.967Z,100.00
2022-08-19T08:32:14.214Z,100.00
2022-08-19T08:37:19.958Z,100.00
2022-08-19T08:42:29.572Z,90.59
2022-08-19T08:47:37.437Z,88.03
2022-08-19T08:52:49.470Z,87.17
2022-08-19T08:57:58.444Z,88.12
2022-08-19T09:03:04.031Z,90.82
2022-08-19T09:08:16.320Z,96.23
2022-08-19T09:13:31.637Z,100.00
2022-08-19T09:18:43.226Z,100.00
2022-08-19T09:23:50.923Z,100.00
2022-08-19T09:28:55.907Z,100.00
2022-08-19T09:34:04.756Z,100.00
2022-08-19T09:39:14.829Z,100.00
2022-08-19T09:44:21.370Z,100.00
2022-08-19T09:49:25.500Z,100.00
2022-08-19T09:54:30.564Z,100.00
2022-08-19T09:59:34.244Z,100.00
2022-08-19T10:04:56.744Z,100.00
2022-08-19T10:10:01.502Z,100.00
2022-08-19T10:15:07.278Z,100.00
2022-08-19T10:20:11.773Z,100.00
2022-08-19T10:25:17.663Z,100.00
2022-08-19T10:30:22.278Z,100.00
2022-08-19T10:35:30.408Z,100.00
2022-08-19T10:40:35.938Z,100.00
2022-08-19T10:45:52.614Z,100.00
2022-08-19T10:51:22.606Z,100.00
2022-08-19T10:56:45.858Z,99.30
2022-08-19T11:01:50.030Z,97.28
2022-08-19T11:06:58.100Z,92.22
2022-08-19T11:12:04.715Z,92.22
2022-08-19T11:17:08.898Z,91.30
2022-08-19T11:22:12.614Z,89.78
2022-08-19T11:27:24.246Z,90.21
2022-08-19T11:32:28.308Z,91.37
2022-08-19T11:37:32.091Z,89.61
2022-08-19T11:42:54.566Z,93.21
2022-08-19T11:47:58.348Z,92.65
2022-08-19T11:53:01.912Z,91.71
2022-08-19T11:58:07.384Z,88.78
2022-08-19T12:03:22.715Z,89.32
2022-08-19T12:08:26.276Z,87.37
2022-08-19T12:13:32.901Z,85.73
2022-08-19T12:18:36.499Z,83.63
2022-08-19T12:23:40.344Z,82.45
2022-08-19T12:28:45.978Z,84.57
2022-08-19T12:33:49.879Z,85.26
2022-08-19T12:38:53.995Z,84.36
2022-08-19T12:43:59.359Z,84.44
2022-08-19T12:49:12.191Z,82.83
2022-08-19T12:54:27.889Z,81.33
2022-08-19T12:59:32.806Z,82.62
2022-08-19T13:04:41.472Z,81.39
2022-08-19T13:09:45.751Z,83.50
2022-08-19T13:14:51.114Z,83.64
2022-08-19T13:19:54.726Z,83.67
2022-08-19T13:24:58.488Z,78.95
2022-08-19T13:30:22.162Z,80.63
2022-08-19T13:35:25.703Z,80.19
2022-08-19T13:40:30.273Z,79.74
2022-08-19T13:45:36.235Z,80.22
2022-08-19T13:50:43.360Z,79.67
2022-08-19T13:55:47.615Z,79.14
2022-08-19T14:00:52.767Z,81.57
2022-08-19T14:05:56.320Z,82.75
2022-08-19T14:11:00.094Z,82.91
2022-08-19T14:16:12.285Z,84.91
2022-08-19T14:21:21.969Z,85.64
2022-08-19T14:26:25.652Z,87.93
2022-08-19T14:31:31.466Z,89.47
2022-08-19T14:36:39.132Z,90.33
2022-08-19T14:41:44.048Z,92.97
2022-08-19T14:46:49.575Z,92.87
2022-08-19T14:51:53.461Z,95.28
2022-08-19T14:56:57.293Z,97.26
2022-08-19T15:02:33.631Z,98.50
2022-08-19T15:07:25.804Z,98.38
2022-08-19T15:12:33.270Z,99.82
2022-08-19T15:17:54.490Z,100.00
2022-08-19T15:22:58.760Z,100.00
2022-08-19T15:28:02.323Z,100.00
2022-08-19T15:33:08.151Z,100.00
2022-08-19T15:38:14.013Z,100.00
2022-08-19T15:43:20.608Z,100.00
2022-08-19T15:48:25.435Z,100.00
2022-08-19T15:53:28.985Z,100.00
2022-08-19T15:58:50.562Z,100.00
2022-08-19T16:04:16.044Z,100.00
2022-08-19T16:09:27.020Z,100.00
2022-08-19T16:14:33.615Z,100.00
2022-08-19T16:19:38.687Z,100.00
2022-08-19T16:24:42.205Z,100.00
2022-08-19T16:29:45.713Z,100.00
2022-08-19T16:34:50.727Z,100.00
2022-08-19T16:39:54.415Z,100.00
2022-08-19T16:44:57.967Z,100.00
2022-08-19T16:50:03.072Z,100.00
2022-08-19T16:55:08.449Z,100.00
2022-08-19T17:00:13.944Z,100.00
2022-08-19T17:05:19.644Z,100.00
2022-08-19T17:10:23.323Z,100.00
2022-08-19T17:15:26.813Z,100.00
2022-08-19T17:20:32.362Z,100.00
2022-08-19T17:25:37.776Z,100.00
2022-08-19T17:30:42.298Z,100.00
2022-08-19T17:35:48.061Z,100.00
2022-08-19T17:40:52.075Z,100.00
2022-08-19T17:45:55.590Z,100.00
2022-08-19T17:51:01.094Z,100.00
2022-08-19T17:56:04.996Z,100.00
2022-08-19T18:01:11.535Z,100.00
2022-08-19T18:06:18.308Z,100.00
2022-08-19T18:11:21.906Z,100.00
2022-08-19T18:16:25.973Z,100.00
2022-08-19T18:21:31.995Z,100.00
2022-08-19T18:26:35.524Z,100.00
2022-08-19T18:31:39.741Z,100.00
2022-08-19T18:36:53.920Z,100.00
2022-08-19T18:42:15.462Z,100.00
2022-08-19T18:47:36.735Z,100.00
2022-08-19T18:52:41.727Z,100.00
2022-08-19T18:57:45.749Z,100.00
2022-08-19T19:02:50.133Z,100.00
2022-08-19T19:07:55.414Z,100.00
2022-08-19T19:12:59.213Z,100.00
2022-08-19T19:18:02.776Z,100.00
2022-08-19T19:23:07.684Z,100.00
2022-08-19T19:28:14.616Z,100.00
2022-08-19T19:33:19.864Z,100.00
2022-08-19T19:38:24.778Z,100.00
2022-08-19T19:43:35.884Z,100.00
2022-08-19T19:48:46.885Z,100.00
2022-08-19T19:53:53.695Z,100.00
2022-08-19T19:58:57.311Z,100.00
2022-08-19T20:04:01.506Z,100.00
2022-08-19T20:09:12.226Z,100.00
2022-08-19T20:14:20.804Z,100.00
2022-08-19T20:19:27.128Z,100.00
2022-08-19T20:24:35.257Z,100.00
2022-08-19T20:29:41.655Z,100.00
2022-08-19T20:34:49.161Z,100.00
2022-08-19T20:39:54.149Z,100.00
2022-08-19T20:44:57.944Z,100.00
2022-08-19T20:50:01.469Z,100.00
2022-08-19T20:55:07.070Z,100.00
2022-08-19T21:00:12.735Z,100.00
2022-08-19T21:05:16.275Z,100.00
2022-08-19T21:10:21.390Z,100.00
2022-08-19T21:15:25.667Z,100.00
2022-08-19T21:20:29.153Z,100.00
2022-08-19T21:25:34.369Z,100.00
2022-08-19T21:30:38.139Z,100.00
2022-08-19T21:35:41.852Z,100.00
2022-08-19T21:40:46.732Z,100.00
2022-08-19T21:45:50.990Z,100.00
2022-08-19T21:50:54.507Z,100.00
2022-08-19T21:56:00.440Z,100.00
2022-08-19T22:01:07.873Z,100.00
2022-08-19T22:06:11.462Z,100.00
2022-08-19T22:11:17.113Z,100.00
2022-08-19T22:16:21.134Z,100.00
2022-08-19T22:21:31.355Z,100.00
2022-08-19T22:26:45.892Z,100.00
2022-08-19T22:31:54.492Z,100.00
2022-08-19T22:37:01.787Z,100.00
2022-08-19T22:42:07.440Z,100.00
2022-08-19T22:47:11.108Z,100.00
2022-08-19T22:52:18.407Z,100.00
2022-08-19T22:57:24.120Z,100.00
2022-08-19T23:02:31.293Z,100.00
2022-08-19T23:07:35.277Z,100.00
2022-08-19T23:12:43.627Z,100.00
2022-08-19T23:17:47.550Z,100.00
2022-08-19T23:22:52.519Z,100.00
2022-08-19T23:28:15.132Z,100.00
2022-08-19T23:33:24.204Z,100.00
2022-08-19T23:38:32.261Z,100.00
2022-08-19T23:43:38.816Z,100.00
2022-08-19T23:48:42.923Z,100.00
2022-08-19T23:53:46.602Z,100.00
2022-08-19T23:58:51.579Z,100.00
